Time;durP1;ratioP1;P1;durP2;ratioP2;P2;SDS_P1;SDS_P2;PMS_P1;PMS_P2;Temp;Humidity;BMP_temperature;BMP_pressure;BME280_temperature;BME280_humidity;BME280_pressure;Samples;Min_cycle;Max_cycle;Signal;HPM_P1;HPM_P2
2023/09/02 00:01:39;;;;;;;9.50;8.70;;;19.20;68.70;;;;;;5054259;28;20634;-70
2023/09/02 00:04:04;;;;;;;9.30;8.50;;;19.20;68.70;;;;;;5053393;28;20233;-72
2023/09/02 00:06:30;;;;;;;9.63;8.82;;;19.20;68.70;;;;;;5054170;28;20305;-69
2023/09/02 00:08:56;;;;;;;8.93;8.13;;;19.20;68.70;;;;;;5053314;28;20248;-70
2023/09/02 00:11:21;;;;;;;9.40;8.63;;;19.20;68.70;;;;;;5053861;28;20282;-70
2023/09/02 00:13:47;;;;;;;9.05;8.25;;;19.20;68.70;;;;;;5054288;28;20179;-68
2023/09/02 00:16:16;;;;;;;9.57;8.77;;;19.20;68.80;;;;;;5052884;28;20384;-69
2023/09/02 00:18:42;;;;;;;9.90;9.00;;;19.20;68.80;;;;;;5053895;28;20630;-68
2023/09/02 00:21:08;;;;;;;9.27;8.50;;;19.20;68.80;;;;;;5053569;28;20185;-69
2023/09/02 00:23:33;;;;;;;9.85;9.05;;;19.20;68.80;;;;;;5053114;28;20181;-68
2023/09/02 00:25:59;;;;;;;9.80;8.93;;;19.20;68.70;;;;;;5053728;28;20208;-69
2023/09/02 00:28:25;;;;;;;8.35;7.65;;;19.20;68.80;;;;;;5053796;28;20237;-68
2023/09/02 00:30:50;;;;;;;9.55;8.75;;;19.20;68.80;;;;;;5052897;28;20201;-69
2023/09/02 00:33:16;;;;;;;9.65;8.85;;;19.20;68.80;;;;;;5053314;28;20221;-71
2023/09/02 00:35:41;;;;;;;9.90;9.00;;;19.20;68.90;;;;;;5053674;28;20179;-70
2023/09/02 00:38:07;;;;;;;9.23;8.45;;;19.20;68.80;;;;;;5052715;28;20250;-70
2023/09/02 00:40:32;;;;;;;9.20;8.40;;;19.20;68.90;;;;;;5052212;28;20645;-68
2023/09/02 00:42:58;;;;;;;8.90;8.10;;;19.20;69.80;;;;;;5052211;28;20504;-69
2023/09/02 00:45:23;;;;;;;8.93;8.23;;;19.20;69.70;;;;;;5051694;28;20198;-70
2023/09/02 00:47:49;;;;;;;9.82;8.93;;;19.20;68.80;;;;;;5053521;28;20181;-72
2023/09/02 00:50:15;;;;;;;9.77;8.90;;;19.20;69.00;;;;;;5051510;28;20253;-69
2023/09/02 00:52:41;;;;;;;9.10;8.30;;;19.20;69.00;;;;;;5052533;28;20576;-69
2023/09/02 00:55:06;;;;;;;8.73;8.02;;;19.20;69.00;;;;;;5052974;28;20209;-69
2023/09/02 00:57:32;;;;;;;9.38;8.57;;;19.20;69.00;;;;;;5053460;28;20175;-69
2023/09/02 00:59:58;;;;;;;9.18;8.38;;;19.20;69.00;;;;;;5052264;28;20222;-69
2023/09/02 01:02:24;;;;;;;9.77;8.88;;;19.20;69.00;;;;;;5053261;28;20186;-70
2023/09/02 01:04:49;;;;;;;8.48;7.68;;;19.20;69.10;;;;;;5053149;28;20175;-70
2023/09/02 01:07:15;;;;;;;9.50;8.70;;;19.20;69.10;;;;;;5052117;28;20309;-71
2023/09/02 01:09:41;;;;;;;9.13;8.32;;;19.20;69.00;;;;;;5051694;28;20206;-69
2023/09/02 01:12:07;;;;;;;8.63;7.93;;;19.20;69.90;;;;;;5051637;28;20301;-69
2023/09/02 01:14:32;;;;;;;8.57;7.78;;;19.20;69.00;;;;;;5051489;28;20244;-68
2023/09/02 01:16:58;;;;;;;9.45;8.65;;;19.20;69.10;;;;;;5052996;28;20183;-68
2023/09/02 01:19:23;;;;;;;9.02;8.27;;;19.20;69.10;;;;;;5050955;28;20182;-69
2023/09/02 01:22:08;;;;;;;8.93;8.10;;;19.20;69.10;;;;;;5052910;28;20171;-68
2023/09/02 01:24:50;;;;;;;8.75;8.02;;;19.20;69.10;;;;;;5053075;28;20170;-68
2023/09/02 01:27:35;;;;;;;9.02;8.32;;;19.20;69.20;;;;;;5050609;28;20218;-69
2023/09/02 01:30:08;;;;;;;9.65;8.85;;;19.20;69.20;;;;;;5051491;28;20642;-69
2023/09/02 01:32:37;;;;;;;9.20;8.40;;;19.20;69.20;;;;;;5051665;28;20183;-69
2023/09/02 01:35:04;;;;;;;8.48;7.70;;;19.20;69.10;;;;;;5051743;28;20175;-72
2023/09/02 01:37:32;;;;;;;9.05;8.25;;;19.20;70.00;;;;;;5052856;28;20547;-70
2023/09/02 01:39:57;;;;;;;8.73;8.02;;;19.20;69.20;;;;;;5051279;28;20167;-70
2023/09/02 01:42:23;;;;;;;8.07;7.38;;;19.20;69.10;;;;;;5051935;28;20190;-70
2023/09/02 01:44:49;;;;;;;9.13;8.32;;;19.10;69.10;;;;;;5051490;28;20171;-69
2023/09/02 01:47:14;;;;;;;8.35;7.65;;;19.20;69.20;;;;;;5051028;28;20186;-70
2023/09/02 01:49:40;;;;;;;8.40;7.72;;;19.20;69.10;;;;;;5050844;28;20207;-69
2023/09/02 01:52:05;;;;;;;8.98;8.18;;;19.20;69.30;;;;;;5051431;28;20181;-70
2023/09/02 01:54:31;;;;;;;8.60;7.90;;;19.20;69.30;;;;;;5050580;28;20199;-68
2023/09/02 01:56:57;;;;;;;8.15;7.45;;;19.20;69.30;;;;;;5052723;28;20175;-69
2023/09/02 01:59:22;;;;;;;8.02;7.43;;;19.20;69.30;;;;;;5051044;28;20583;-70
2023/09/02 02:01:48;;;;;;;8.82;8.10;;;19.10;69.10;;;;;;5054129;28;20634;-71
2023/09/02 02:04:40;;;;;;;8.63;7.93;;;19.10;69.20;;;;;;5056391;28;20658;-71
2023/09/02 02:07:08;;;;;;;8.48;7.75;;;19.20;69.20;;;;;;5053955;28;20266;-69
2023/09/02 02:09:38;;;;;;;8.43;7.75;;;19.20;69.20;;;;;;5054491;28;20293;-69
2023/09/02 02:12:04;;;;;;;8.00;7.30;;;19.20;69.20;;;;;;5055065;28;20179;-69
2023/09/02 02:14:33;;;;;;;8.30;7.60;;;19.20;69.30;;;;;;5055067;28;20197;-68
2023/09/02 02:17:00;;;;;;;8.27;7.47;;;19.20;69.30;;;;;;5055617;28;20202;-69
2023/09/02 02:19:25;;;;;;;7.72;7.13;;;19.20;69.30;;;;;;5056222;28;20190;-68
2023/09/02 02:21:51;;;;;;;8.35;7.65;;;19.20;69.30;;;;;;5056329;28;20171;-69
2023/09/02 02:24:16;;;;;;;8.25;7.55;;;19.10;69.20;;;;;;5055066;28;20221;-69
2023/09/02 02:26:42;;;;;;;8.48;7.78;;;19.20;69.20;;;;;;5056270;28;20186;-68
2023/09/02 02:29:07;;;;;;;8.27;7.47;;;19.10;69.30;;;;;;5055737;28;20210;-69
2023/09/02 02:31:34;;;;;;;7.95;7.25;;;19.20;69.30;;;;;;5055500;28;20181;-69
2023/09/02 02:34:00;;;;;;;7.85;7.25;;;19.10;69.20;;;;;;5055715;28;20752;-70
2023/09/02 02:36:25;;;;;;;8.20;7.50;;;19.20;69.30;;;;;;5055779;28;20274;-69
2023/09/02 02:38:51;;;;;;;8.45;7.72;;;19.20;69.30;;;;;;5055091;28;20207;-68
2023/09/02 02:41:16;;;;;;;7.65;7.05;;;19.20;69.30;;;;;;5055499;28;20172;-69
2023/09/02 02:43:42;;;;;;;8.02;7.32;;;19.10;69.10;;;;;;5055156;28;20203;-68
2023/09/02 02:46:08;;;;;;;7.85;7.15;;;19.20;69.40;;;;;;5055387;28;20178;-68
2023/09/02 02:48:33;;;;;;;7.20;6.60;;;19.20;69.40;;;;;;5055843;28;20171;-68
2023/09/02 02:50:59;;;;;;;8.07;7.38;;;19.20;69.40;;;;;;5054844;28;20186;-69
2023/09/02 02:53:24;;;;;;;7.70;7.10;;;19.10;69.30;;;;;;5055584;28;20560;-68
2023/09/02 02:55:50;;;;;;;7.07;6.47;;;19.10;69.30;;;;;;5055539;28;20536;-68
2023/09/02 02:58:16;;;;;;;7.95;7.25;;;19.10;69.30;;;;;;5054263;28;20241;-68
2023/09/02 03:00:43;;;;;;;8.30;7.60;;;19.10;70.10;;;;;;5055681;28;20183;-67
2023/09/02 03:03:09;;;;;;;8.20;7.50;;;19.20;69.40;;;;;;5055325;28;20194;-70
2023/09/02 03:05:36;;;;;;;7.88;7.15;;;19.10;69.30;;;;;;5054637;28;20175;-69
2023/09/02 03:08:02;;;;;;;7.50;6.93;;;19.10;69.30;;;;;;5055205;28;20179;-69
2023/09/02 03:10:28;;;;;;;7.32;6.72;;;19.10;69.30;;;;;;5055115;28;20221;-68
2023/09/02 03:12:53;;;;;;;7.82;7.20;;;19.10;69.30;;;;;;5054481;28;20258;-68
2023/09/02 03:15:19;;;;;;;7.70;7.00;;;19.10;69.30;;;;;;5055088;28;20210;-68
2023/09/02 03:17:44;;;;;;;7.78;7.07;;;19.10;69.20;;;;;;5055276;28;20178;-67
2023/09/02 03:20:10;;;;;;;7.53;6.93;;;19.20;69.40;;;;;;5054170;28;20182;-67
2023/09/02 03:22:36;;;;;;;7.38;6.78;;;19.10;69.30;;;;;;5055286;28;20171;-70
2023/09/02 03:25:01;;;;;;;7.45;6.75;;;19.10;69.40;;;;;;5053603;28;20171;-68
2023/09/02 03:27:27;;;;;;;7.10;6.50;;;19.10;69.30;;;;;;5054172;28;20204;-68
2023/09/02 03:29:52;;;;;;;7.43;6.82;;;19.10;69.30;;;;;;5054878;28;20279;-68
2023/09/02 03:32:19;;;;;;;7.47;6.88;;;19.10;69.30;;;;;;5054556;28;20178;-69
2023/09/02 03:34:44;;;;;;;7.43;6.82;;;19.10;70.10;;;;;;5054055;28;20209;-68
2023/09/02 03:37:10;;;;;;;7.68;7.07;;;19.10;69.30;;;;;;5054647;28;20163;-70
2023/09/02 03:39:36;;;;;;;7.50;6.75;;;19.10;69.30;;;;;;5054581;28;20258;-68
2023/09/02 03:42:02;;;;;;;7.22;6.63;;;19.10;69.30;;;;;;5053780;28;20170;-69
2023/09/02 03:44:28;;;;;;;7.57;6.97;;;19.10;69.30;;;;;;5054708;28;20179;-68
2023/09/02 03:46:53;;;;;;;7.30;6.68;;;19.10;69.30;;;;;;5053854;28;20178;-69
2023/09/02 03:49:19;;;;;;;7.65;6.95;;;19.10;70.20;;;;;;5054152;28;20210;-69
2023/09/02 03:51:44;;;;;;;7.63;6.95;;;19.10;69.30;;;;;;5054623;28;20261;-68
2023/09/02 03:54:10;;;;;;;7.22;6.55;;;19.10;69.30;;;;;;5053676;28;20206;-68
2023/09/02 03:56:38;;;;;;;7.30;6.60;;;19.10;69.30;;;;;;5054422;28;20203;-68
2023/09/02 03:59:05;;;;;;;7.03;6.43;;;19.10;69.40;;;;;;5054082;28;20249;-68
2023/09/02 04:01:31;;;;;;;7.07;6.53;;;19.10;69.30;;;;;;5053790;28;20553;-69
2023/09/02 04:03:57;;;;;;;7.03;6.43;;;19.10;69.30;;;;;;5054357;28;20175;-69
2023/09/02 04:06:22;;;;;;;7.03;6.50;;;19.10;69.30;;;;;;5054036;28;20665;-69
2023/09/02 04:08:48;;;;;;;6.85;6.32;;;19.10;69.30;;;;;;5053439;28;20179;-69
2023/09/02 04:11:13;;;;;;;6.95;6.35;;;19.10;69.40;;;;;;5053780;28;20223;-69
2023/09/02 04:13:39;;;;;;;7.13;6.43;;;19.10;69.30;;;;;;5054173;28;20198;-67
2023/09/02 04:16:05;;;;;;;6.82;6.32;;;19.10;69.40;;;;;;5053252;28;20675;-68
2023/09/02 04:18:31;;;;;;;7.25;6.65;;;19.20;69.40;;;;;;5053945;28;20183;-67
2023/09/02 04:20:59;;;;;;;7.43;6.82;;;19.10;69.30;;;;;;5054081;28;20221;-67
2023/09/02 04:23:24;;;;;;;7.38;6.68;;;19.10;69.40;;;;;;5052423;28;20266;-68
2023/09/02 04:25:51;;;;;;;6.75;6.13;;;19.10;69.30;;;;;;5054101;28;20262;-67
2023/09/02 04:28:17;;;;;;;7.63;6.90;;;19.10;69.40;;;;;;5053561;28;20604;-68
2023/09/02 04:30:43;;;;;;;7.25;6.65;;;19.10;69.40;;;;;;5052992;28;20305;-67
2023/09/02 04:33:09;;;;;;;7.18;6.57;;;19.10;69.40;;;;;;5053499;28;20254;-70
2023/09/02 04:35:39;;;;;;;6.97;6.38;;;19.10;69.40;;;;;;5053729;28;20258;-70
2023/09/02 04:38:05;;;;;;;7.70;7.05;;;19.10;69.40;;;;;;5052709;28;20174;-69
2023/09/02 04:40:31;;;;;;;6.85;6.28;;;19.10;69.40;;;;;;5053631;28;20175;-68
2023/09/02 04:42:57;;;;;;;7.20;6.60;;;19.10;69.40;;;;;;5053773;28;20171;-68
2023/09/02 04:45:23;;;;;;;7.25;6.65;;;19.10;69.40;;;;;;5052651;28;20610;-69
2023/09/02 04:47:49;;;;;;;7.28;6.68;;;19.10;69.40;;;;;;5053481;28;20167;-69
2023/09/02 04:50:14;;;;;;;7.32;6.72;;;19.10;69.40;;;;;;5052363;28;20213;-68
2023/09/02 04:52:41;;;;;;;7.53;6.93;;;19.10;69.40;;;;;;5053306;28;20175;-68
2023/09/02 04:55:07;;;;;;;7.85;7.05;;;19.10;69.50;;;;;;5052963;28;20175;-68
2023/09/02 04:57:33;;;;;;;7.28;6.68;;;19.10;69.50;;;;;;5052998;28;20179;-68
2023/09/02 04:59:59;;;;;;;7.72;7.13;;;19.10;69.50;;;;;;5052837;28;20309;-69
2023/09/02 05:02:24;;;;;;;6.82;6.22;;;19.10;69.50;;;;;;5053046;28;20401;-70
2023/09/02 05:04:51;;;;;;;7.47;6.88;;;19.10;69.40;;;;;;5052613;28;20175;-69
2023/09/02 05:07:17;;;;;;;6.78;6.20;;;19.10;70.30;;;;;;5052817;28;20182;-71
2023/09/02 05:09:42;;;;;;;6.80;6.30;;;19.10;69.50;;;;;;5053204;28;20215;-68
2023/09/02 05:12:08;;;;;;;7.32;6.63;;;19.10;69.50;;;;;;5051993;28;20182;-69
2023/09/02 05:14:34;;;;;;;7.15;6.55;;;19.10;69.40;;;;;;5052977;28;20210;-68
2023/09/02 05:16:59;;;;;;;7.22;6.55;;;19.10;69.40;;;;;;5052738;28;20258;-70
2023/09/02 05:19:25;;;;;;;7.07;6.47;;;19.10;69.40;;;;;;5052162;28;20175;-68
2023/09/02 05:21:51;;;;;;;7.13;6.53;;;19.10;69.40;;;;;;5052878;28;20559;-68
2023/09/02 05:24:16;;;;;;;7.13;6.53;;;19.10;69.40;;;;;;5052530;28;20638;-68
2023/09/02 05:26:42;;;;;;;7.22;6.50;;;19.10;69.50;;;;;;5052044;28;20271;-68
2023/09/02 05:29:07;;;;;;;6.75;6.25;;;19.10;69.40;;;;;;5052575;28;20294;-68
2023/09/02 05:31:33;;;;;;;7.25;6.65;;;19.10;69.40;;;;;;5052929;28;20270;-68
2023/09/02 05:33:58;;;;;;;6.80;6.20;;;19.10;69.50;;;;;;5051780;28;20174;-70
2023/09/02 05:36:24;;;;;;;8.88;8.07;;;19.10;69.40;;;;;;5052552;28;20187;-70
2023/09/02 05:38:50;;;;;;;7.35;6.75;;;19.10;69.40;;;;;;5052900;28;20704;-69
2023/09/02 05:41:15;;;;;;;7.60;6.90;;;19.10;69.40;;;;;;5051637;28;20179;-69
2023/09/02 05:43:41;;;;;;;10.70;7.47;;;19.10;69.40;;;;;;5052894;28;20257;-70
2023/09/02 05:46:06;;;;;;;7.47;6.78;;;19.10;70.20;;;;;;5052507;28;20175;-70
2023/09/02 05:48:33;;;;;;;7.10;6.55;;;19.10;69.40;;;;;;5051993;28;20167;-69
2023/09/02 05:50:59;;;;;;;8.05;7.35;;;19.10;69.50;;;;;;5052200;28;20223;-71
2023/09/02 05:53:24;;;;;;;7.80;7.10;;;19.10;69.40;;;;;;5052707;28;20171;-67
2023/09/02 05:55:56;;;;;;;7.75;7.05;;;19.20;69.50;;;;;;5052121;28;20177;-69
2023/09/02 05:58:25;;;;;;;7.35;6.75;;;19.10;69.40;;;;;;5052243;28;20691;-70
2023/09/02 06:00:51;;;;;;;6.80;6.20;;;19.10;69.40;;;;;;5051985;28;20194;-70
2023/09/02 06:03:16;;;;;;;7.00;6.40;;;19.10;69.40;;;;;;5052243;28;20175;-70
2023/09/02 06:05:42;;;;;;;7.13;6.53;;;19.10;69.40;;;;;;5052502;28;20225;-70
2023/09/02 06:08:10;;;;;;;7.70;7.00;;;19.10;69.40;;;;;;5051637;28;20168;-69
2023/09/02 06:10:36;;;;;;;7.20;6.50;;;19.20;69.50;;;;;;5052431;28;20564;-68
2023/09/02 06:13:02;;;;;;;7.55;6.95;;;19.10;69.40;;;;;;5052483;28;20181;-69
2023/09/02 06:15:28;;;;;;;7.35;6.75;;;19.10;69.50;;;;;;5051750;28;20266;-68
2023/09/02 06:17:53;;;;;;;7.38;6.68;;;19.10;70.20;;;;;;5052393;28;20593;-68
2023/09/02 06:20:21;;;;;;;7.40;6.80;;;19.10;69.40;;;;;;5051978;28;20660;-68
2023/09/02 06:22:46;;;;;;;6.97;6.38;;;19.20;69.50;;;;;;5051740;28;20297;-69
2023/09/02 06:25:12;;;;;;;7.28;6.68;;;19.20;69.50;;;;;;5052275;28;20258;-69
2023/09/02 06:27:38;;;;;;;6.68;6.18;;;19.10;69.50;;;;;;5052313;28;20202;-67
2023/09/02 06:30:04;;;;;;;7.03;6.43;;;19.10;69.50;;;;;;5051330;28;20218;-69
2023/09/02 06:32:30;;;;;;;7.18;6.53;;;19.10;69.40;;;;;;5050836;28;20171;-69
2023/09/02 06:34:55;;;;;;;7.28;6.68;;;19.20;69.50;;;;;;5052157;28;20198;-71
2023/09/02 06:37:21;;;;;;;7.28;6.68;;;19.20;69.50;;;;;;5051356;28;20176;-71
2023/09/02 06:39:52;;;;;;;6.88;6.28;;;19.20;69.50;;;;;;5052266;28;20556;-69
2023/09/02 06:42:17;;;;;;;7.30;6.60;;;19.20;69.50;;;;;;5051880;28;20175;-69
2023/09/02 06:44:46;;;;;;;7.43;6.75;;;19.20;69.60;;;;;;5051433;28;20198;-68
2023/09/02 06:47:15;;;;;;;6.90;6.22;;;19.20;69.60;;;;;;5052892;28;20530;-70
2023/09/02 06:49:41;;;;;;;7.60;6.90;;;19.20;69.50;;;;;;5054721;28;20214;-69
2023/09/02 06:52:06;;;;;;;7.05;6.45;;;19.20;69.50;;;;;;5054737;28;20175;-69
2023/09/02 06:54:32;;;;;;;7.20;6.60;;;19.20;69.50;;;;;;5055826;28;20199;-69
2023/09/02 06:56:57;;;;;;;7.45;6.85;;;19.20;70.30;;;;;;5054780;28;20622;-70
2023/09/02 06:59:25;;;;;;;7.40;6.70;;;19.20;69.60;;;;;;5055168;28;20311;-69
2023/09/02 07:01:51;;;;;;;7.00;6.40;;;19.20;69.50;;;;;;5055385;28;20199;-70
2023/09/02 07:04:17;;;;;;;6.40;5.90;;;19.20;69.60;;;;;;5054353;28;20701;-71
2023/09/02 07:06:42;;;;;;;6.45;5.95;;;19.20;69.60;;;;;;5055322;28;20174;-70
2023/09/02 07:09:08;;;;;;;7.63;6.95;;;19.20;69.50;;;;;;5055117;28;20203;-71
2023/09/02 07:11:34;;;;;;;6.57;6.07;;;19.20;69.50;;;;;;5054730;28;20175;-69
2023/09/02 07:14:00;;;;;;;6.90;6.30;;;19.20;69.60;;;;;;5055156;28;20177;-68
2023/09/02 07:16:26;;;;;;;7.18;6.57;;;19.20;69.60;;;;;;5055126;28;20171;-68
2023/09/02 07:18:52;;;;;;;6.47;5.97;;;19.20;69.60;;;;;;5054759;28;20167;-68
2023/09/02 07:21:22;;;;;;;6.30;5.80;;;19.20;69.60;;;;;;5054933;28;20190;-69
2023/09/02 07:23:47;;;;;;;6.75;6.25;;;19.20;69.60;;;;;;5055353;28;20174;-69
2023/09/02 07:26:13;;;;;;;6.55;6.05;;;19.20;69.60;;;;;;5054066;28;20570;-69
2023/09/02 07:28:41;;;;;;;6.45;5.88;;;19.20;69.50;;;;;;5054821;28;20656;-69
2023/09/02 07:31:06;;;;;;;6.28;5.78;;;19.20;69.50;;;;;;5054525;28;20578;-70
2023/09/02 07:33:32;;;;;;;6.75;6.25;;;19.20;69.60;;;;;;5054319;28;20258;-69
2023/09/02 07:35:59;;;;;;;6.68;6.03;;;19.20;69.70;;;;;;5055068;28;20171;-71
2023/09/02 07:38:25;;;;;;;7.28;6.57;;;19.20;69.70;;;;;;5054895;28;20175;-70
2023/09/02 07:40:50;;;;;;;6.20;5.70;;;19.20;69.60;;;;;;5054144;28;20186;-69
2023/09/02 07:43:16;;;;;;;6.07;5.57;;;19.20;69.70;;;;;;5054472;28;20171;-69
2023/09/02 07:45:43;;;;;;;6.68;6.07;;;19.20;69.60;;;;;;5054588;28;20179;-69
2023/09/02 07:48:09;;;;;;;5.85;5.35;;;19.20;69.60;;;;;;5053788;28;20241;-71
2023/09/02 07:50:34;;;;;;;6.20;5.70;;;19.30;69.70;;;;;;5054621;28;20211;-70
2023/09/02 07:53:00;;;;;;;6.75;6.15;;;19.20;70.50;;;;;;5054383;28;20171;-69
2023/09/02 07:55:25;;;;;;;6.80;6.20;;;19.20;69.50;;;;;;5053922;28;20582;-69
2023/09/02 07:57:51;;;;;;;6.18;5.63;;;19.30;69.60;;;;;;5053840;28;20182;-70
2023/09/02 08:00:16;;;;;;;6.70;6.10;;;19.30;69.50;;;;;;5052593;28;21089;-71
2023/09/02 08:02:42;;;;;;;6.28;5.68;;;19.30;69.50;;;;;;5054327;28;20167;-71
2023/09/02 08:05:08;;;;;;;6.53;5.93;;;19.30;69.50;;;;;;5054153;28;20172;-72
2023/09/02 08:07:33;;;;;;;6.35;5.75;;;19.30;69.50;;;;;;5053613;28;20660;-70
2023/09/02 08:09:59;;;;;;;6.20;5.70;;;19.30;69.50;;;;;;5053969;28;20229;-70
2023/09/02 08:12:24;;;;;;;6.40;5.90;;;19.30;69.50;;;;;;5054132;28;20316;-69
2023/09/02 08:14:50;;;;;;;6.30;5.80;;;19.30;69.40;;;;;;5053394;28;20175;-69
2023/09/02 08:17:19;;;;;;;5.57;5.18;;;19.30;69.40;;;;;;5053934;28;20183;-69
2023/09/02 08:19:44;;;;;;;5.88;5.43;;;19.40;69.50;;;;;;5054126;28;20175;-69
2023/09/02 08:22:10;;;;;;;5.32;4.93;;;19.30;69.40;;;;;;5053018;28;20178;-70
2023/09/02 08:24:36;;;;;;;6.10;5.60;;;19.40;69.40;;;;;;5054051;28;20175;-68
2023/09/02 08:27:02;;;;;;;6.05;5.55;;;19.40;69.40;;;;;;5053700;28;20760;-69
2023/09/02 08:29:27;;;;;;;5.68;5.18;;;19.40;69.40;;;;;;5053054;28;20207;-69
2023/09/02 08:31:53;;;;;;;6.00;5.50;;;19.40;69.40;;;;;;5053982;28;20210;-70
2023/09/02 08:34:19;;;;;;;6.22;5.72;;;19.40;69.40;;;;;;5053312;28;20202;-71
2023/09/02 08:36:44;;;;;;;5.95;5.45;;;19.40;69.40;;;;;;5053266;28;20195;-69
2023/09/02 08:39:10;;;;;;;5.43;5.03;;;19.40;69.40;;;;;;5053311;28;20622;-70
2023/09/02 08:41:36;;;;;;;5.22;4.82;;;19.40;69.30;;;;;;5053570;28;20240;-69
2023/09/02 08:44:02;;;;;;;5.43;5.03;;;19.30;69.30;;;;;;5052520;28;20270;-69
2023/09/02 08:46:28;;;;;;;5.97;5.47;;;19.40;69.30;;;;;;5053526;28;20587;-69
2023/09/02 08:48:57;;;;;;;6.22;5.72;;;19.40;69.30;;;;;;5052235;28;20210;-69
2023/09/02 08:51:22;;;;;;;5.80;5.40;;;19.40;69.30;;;;;;5052627;28;20186;-69
2023/09/02 08:53:48;;;;;;;5.30;4.90;;;19.50;69.20;;;;;;5052208;28;20242;-68
2023/09/02 08:56:14;;;;;;;5.85;5.35;;;19.40;69.10;;;;;;5052997;28;20539;-69
2023/09/02 08:58:40;;;;;;;5.60;5.10;;;19.50;69.10;;;;;;5052264;28;20238;-68
2023/09/02 09:01:06;;;;;;;5.40;5.00;;;19.50;69.00;;;;;;5053206;28;20175;-70
2023/09/02 09:03:31;;;;;;;5.30;4.85;;;19.50;69.70;;;;;;5052375;28;20182;-69
2023/09/02 09:05:58;;;;;;;5.70;5.28;;;19.50;68.90;;;;;;5053145;28;20270;-70
2023/09/02 09:08:24;;;;;;;5.30;4.90;;;19.50;68.90;;;;;;5051826;28;20630;-71
2023/09/02 09:10:50;;;;;;;5.40;5.00;;;19.50;68.80;;;;;;5051928;28;20214;-69
2023/09/02 09:13:16;;;;;;;6.13;5.63;;;19.60;68.90;;;;;;5051565;28;20638;-68
2023/09/02 09:15:41;;;;;;;5.43;5.03;;;19.60;68.90;;;;;;5051925;28;20179;-67
2023/09/02 09:18:08;;;;;;;5.85;5.45;;;19.50;68.90;;;;;;5050959;28;20182;-69
2023/09/02 09:20:34;;;;;;;6.55;6.03;;;19.60;68.90;;;;;;5051888;28;20229;-67
2023/09/02 09:22:59;;;;;;;5.65;5.15;;;19.60;68.90;;;;;;5051715;28;20176;-68
2023/09/02 09:25:25;;;;;;;5.70;5.25;;;19.60;68.80;;;;;;5052212;28;20653;-68
2023/09/02 09:27:50;;;;;;;5.05;4.65;;;19.60;68.70;;;;;;5052764;28;20380;-68
2023/09/02 09:30:30;;;;;;;5.45;4.95;;;19.60;69.60;;;;;;5052394;28;20215;-69
2023/09/02 09:33:04;;;;;;;6.10;5.50;;;19.60;68.70;;;;;;5051873;28;20171;-70
2023/09/02 09:35:30;;;;;;;5.70;5.30;;;19.60;68.80;;;;;;5052730;28;20224;-68
2023/09/02 09:37:56;;;;;;;5.18;4.78;;;19.60;68.80;;;;;;5052702;28;20293;-69
2023/09/02 09:40:31;;;;;;;5.60;5.10;;;19.60;68.80;;;;;;5051894;28;20548;-69
2023/09/02 09:42:59;;;;;;;5.35;4.85;;;19.60;68.80;;;;;;5052710;28;20680;-70
2023/09/02 09:45:25;;;;;;;5.88;5.38;;;19.60;68.80;;;;;;5052671;28;20281;-70
2023/09/02 09:47:50;;;;;;;5.35;4.85;;;19.60;68.80;;;;;;5052107;28;20171;-69
2023/09/02 09:50:16;;;;;;;5.65;5.25;;;19.60;68.80;;;;;;5052229;28;20256;-69
2023/09/02 09:53:09;;;;;;;5.55;5.13;;;19.60;68.90;;;;;;5051853;28;20599;-68
2023/09/02 09:55:35;;;;;;;5.28;4.88;;;19.60;68.80;;;;;;5052816;28;20179;-68
2023/09/02 09:58:01;;;;;;;5.20;4.80;;;19.60;68.80;;;;;;5052411;28;20220;-69
2023/09/02 10:00:27;;;;;;;5.30;4.82;;;19.60;68.70;;;;;;5051806;28;20179;-69
2023/09/02 10:02:53;;;;;;;5.38;4.90;;;19.60;68.80;;;;;;5052438;28;20179;-71
2023/09/02 10:05:29;;;;;;;4.80;4.47;;;19.60;68.70;;;;;;5052031;28;20172;-71
2023/09/02 10:07:59;;;;;;;5.05;4.65;;;19.60;68.70;;;;;;5051758;28;20186;-72
2023/09/02 10:10:33;;;;;;;5.30;4.90;;;19.60;68.70;;;;;;5052377;28;20269;-69
2023/09/02 10:12:59;;;;;;;5.20;4.80;;;19.60;68.70;;;;;;5052312;28;20186;-68
2023/09/02 10:15:26;;;;;;;5.25;4.85;;;19.60;68.70;;;;;;5051716;28;20183;-68
2023/09/02 10:17:58;;;;;;;4.93;4.53;;;19.60;68.70;;;;;;5052285;28;20187;-68
2023/09/02 10:20:27;;;;;;;4.93;4.55;;;19.60;68.70;;;;;;5052326;28;20564;-68
2023/09/02 10:22:53;;;;;;;5.18;4.78;;;19.60;68.60;;;;;;5053908;28;20175;-69
2023/09/02 10:25:24;;;;;;;5.10;4.70;;;19.70;68.60;;;;;;5054767;28;20183;-68
2023/09/02 10:28:11;;;;;;;5.40;5.00;;;19.70;68.60;;;;;;5055712;28;20171;-68
2023/09/02 10:30:46;;;;;;;4.90;4.50;;;19.70;68.70;;;;;;5056028;28;20218;-68
2023/09/02 10:33:27;;;;;;;5.57;5.18;;;19.70;69.50;;;;;;5054611;28;20603;-70
2023/09/02 10:35:57;;;;;;;5.90;5.40;;;19.70;68.60;;;;;;5054157;28;20705;-70
2023/09/02 10:38:23;;;;;;;5.50;5.00;;;19.70;68.60;;;;;;5054947;28;20583;-69
2023/09/02 10:40:57;;;;;;;4.95;4.55;;;19.60;68.60;;;;;;5055733;28;20271;-68
2023/09/02 10:43:24;;;;;;;5.18;4.78;;;19.70;68.60;;;;;;5055024;28;20167;-68
2023/09/02 10:45:49;;;;;;;4.82;4.43;;;19.70;68.50;;;;;;5054792;28;20258;-69
2023/09/02 10:48:15;;;;;;;4.68;4.38;;;19.80;68.50;;;;;;5054403;28;20270;-70
2023/09/02 10:50:41;;;;;;;5.47;4.97;;;19.80;68.20;;;;;;5055032;28;20627;-69
2023/09/02 10:53:06;;;;;;;5.30;4.90;;;19.80;69.10;;;;;;5054350;28;20666;-69
2023/09/02 10:55:32;;;;;;;4.85;4.45;;;19.80;68.10;;;;;;5055711;28;20634;-68
2023/09/02 10:57:58;;;;;;;5.20;4.80;;;19.80;68.20;;;;;;5054548;28;20175;-69
2023/09/02 11:00:27;;;;;;;4.68;4.28;;;19.80;68.30;;;;;;5054399;28;20179;-69
2023/09/02 11:02:57;;;;;;;5.00;4.60;;;19.80;68.30;;;;;;5055641;28;20252;-70
2023/09/02 11:05:24;;;;;;;5.43;5.00;;;19.80;68.20;;;;;;5055466;28;20638;-69
2023/09/02 11:07:50;;;;;;;5.00;4.60;;;19.80;68.10;;;;;;5055537;28;20182;-71
2023/09/02 11:10:16;;;;;;;4.68;4.32;;;19.90;68.00;;;;;;5054411;28;20217;-70
2023/09/02 11:12:59;;;;;;;4.68;4.32;;;19.90;67.90;;;;;;5055402;28;20178;-68
2023/09/02 11:15:26;;;;;;;4.80;4.45;;;20.00;67.90;;;;;;5055128;28;20324;-68
2023/09/02 11:17:51;;;;;;;5.10;4.70;;;20.00;67.80;;;;;;5054494;28;20171;-68
2023/09/02 11:20:25;;;;;;;4.63;4.32;;;20.00;67.80;;;;;;5054725;28;20187;-69
2023/09/02 11:23:04;;;;;;;5.20;4.80;;;20.00;68.00;;;;;;5054979;28;20277;-68
2023/09/02 11:25:37;;;;;;;4.78;4.38;;;19.90;68.00;;;;;;5054502;28;20187;-69
2023/09/02 11:28:26;;;;;;;4.53;4.22;;;19.90;68.10;;;;;;5054833;28;20594;-69
2023/09/02 11:31:02;;;;;;;5.13;4.72;;;19.90;68.10;;;;;;5051765;28;20230;-70
2023/09/02 11:33:28;;;;;;;4.82;4.43;;;19.80;68.30;;;;;;5054214;28;20183;-70
2023/09/02 11:35:53;;;;;;;5.00;4.60;;;19.80;68.20;;;;;;5053759;28;20630;-71
2023/09/02 11:38:19;;;;;;;4.60;4.30;;;19.80;68.20;;;;;;5052649;28;20175;-71
2023/09/02 11:40:45;;;;;;;5.50;5.05;;;19.90;68.10;;;;;;5054975;28;20195;-68
2023/09/02 11:43:17;;;;;;;4.95;4.55;;;20.00;68.10;;;;;;5054396;28;20179;-69
2023/09/02 11:45:43;;;;;;;4.50;4.20;;;20.00;67.90;;;;;;5054143;28;20175;-70
2023/09/02 11:48:11;;;;;;;4.75;4.40;;;20.10;67.70;;;;;;5054796;28;20233;-71
2023/09/02 11:50:37;;;;;;;4.68;4.38;;;20.10;67.60;;;;;;5054788;28;20242;-70
2023/09/02 11:53:04;;;;;;;5.30;4.90;;;20.10;67.60;;;;;;5053878;28;20626;-69
2023/09/02 11:55:29;;;;;;;4.95;4.57;;;20.00;67.70;;;;;;5054581;28;20186;-69
2023/09/02 11:57:55;;;;;;;4.28;3.97;;;20.00;67.80;;;;;;5054155;28;20253;-69
2023/09/02 12:00:24;;;;;;;4.32;3.92;;;20.00;67.90;;;;;;5053639;28;20301;-70
2023/09/02 12:02:51;;;;;;;4.45;4.15;;;20.10;67.90;;;;;;5054517;28;20171;-71
2023/09/02 12:05:16;;;;;;;4.78;4.38;;;20.10;67.60;;;;;;5053913;28;20171;-72
2023/09/02 12:07:46;;;;;;;5.32;4.93;;;20.20;67.60;;;;;;5053512;28;20221;-70
2023/09/02 12:10:12;;;;;;;4.68;4.28;;;20.20;67.50;;;;;;5053830;28;20217;-71
2023/09/02 12:12:46;;;;;;;4.43;4.13;;;20.30;67.30;;;;;;5054378;28;20183;-68
2023/09/02 12:15:18;;;;;;;5.13;4.72;;;20.30;67.30;;;;;;5053295;28;20228;-68
2023/09/02 12:17:45;;;;;;;4.25;3.92;;;20.30;67.20;;;;;;5054158;28;20254;-68
2023/09/02 12:20:14;;;;;;;4.03;3.72;;;20.30;67.20;;;;;;5053746;28;20183;-69
2023/09/02 12:22:42;;;;;;;4.57;4.18;;;20.30;67.30;;;;;;5053229;28;20541;-68
2023/09/02 12:25:21;;;;;;;4.97;4.57;;;20.30;67.30;;;;;;5053725;28;20190;-69
2023/09/02 12:27:47;;;;;;;4.75;4.35;;;20.20;67.30;;;;;;5053349;28;20308;-68
2023/09/02 12:30:12;;;;;;;5.20;4.80;;;20.30;67.60;;;;;;5052377;28;20336;-69
2023/09/02 12:32:38;;;;;;;4.55;4.25;;;20.10;67.60;;;;;;5053799;28;20171;-69
2023/09/02 12:35:11;;;;;;;4.55;4.20;;;20.00;67.80;;;;;;5052762;28;20179;-71
2023/09/02 12:37:37;;;;;;;4.20;3.90;;;20.10;68.00;;;;;;5053868;28;20179;-70
2023/09/02 12:40:12;;;;;;;5.03;4.50;;;20.00;68.00;;;;;;5053352;28;20175;-69
2023/09/02 12:42:38;;;;;;;4.93;4.55;;;20.00;68.10;;;;;;5052747;28;20231;-68
2023/09/02 12:45:04;;;;;;;4.55;4.25;;;20.00;68.10;;;;;;5052729;28;20217;-69
2023/09/02 12:47:30;;;;;;;5.00;4.60;;;20.00;68.10;;;;;;5053380;28;20179;-70